Камери на живо
METAR for:LBBG (Burgas Arpt, BU, BU)
Text:LBBG 270330Z 27002KT CAVOK 16/16 Q1019 NOSIG
Temperature: 16.0°C ( 61°F)
Dewpoint: 16.0°C ( 61°F) [RH = 100%]
Pressure (altimeter):30.09 inches Hg (1019.0 mb)
Winds:from the W (270 degrees) at 2 MPH (2 knots; 1.0 m/s)
Visibility:6 or more sm (10+ km)
Ceiling:ceiling and visibility are OK
Clouds:unknown

TAF for:LBBG (Burgas Arpt, BU, BU) issued at 2300 UTC 26 Sep 2021
Text:TAF LBBG 262300Z 2700/2724 VRB04KT CAVOK
Forecast period:0000 to 0900 UTC 27 September 2021
Forecast type:FROM: standard forecast or significant change
Winds:variable direction winds at 5 MPH (4 knots; 2.1 m/s)
Visibility:6 or more sm (10+ km)
Clouds:missing
Weather:NSW (no significant weather)
Text:TEMPO 2702/2705 3000 BR SCT010
Forecast period:0200 to 0500 UTC 27 September 2021
Forecast type:TEMPORARY: The following changes expected for less than half the time period
Visibility: 1.86 sm ( 2.99 km)
Ceiling:at least 12,000 feet AGL
Clouds: scattered clouds at 1000 feet AGL
Weather:BR (mist)
Text:BECMG 2709/2711 12012KT SCT040
Forecast period:0900 UTC 27 September 2021 to 0000 UTC 28 September 2021
Forecast type:BECOMING: Conditions expected to become as follows by 1100 UTC 27 September 2021
Winds:from the ESE (120 degrees) at 14 MPH (12 knots; 6.2 m/s)
Visibility:6 or more sm (10+ km)
Ceiling:at least 12,000 feet AGL
Clouds: scattered clouds at 4000 feet AGL
Weather:NSW (no significant weather)